Time;durP1;ratioP1;P1;durP2;ratioP2;P2;SDS_P1;SDS_P2;PMS_P1;PMS_P2;Temp;Humidity;BMP_temperature;BMP_pressure;BME280_temperature;BME280_humidity;BME280_pressure;Samples;Min_cycle;Max_cycle;Signal;HPM_P1;HPM_P2
2021/12/21 00:00:01;;;;;;;320.35;74.20;;;;;;;3.06;58.58;99837.50;340053;29;881;-71
2021/12/21 00:00:12;;;;;;;319.83;73.13;;;;;;;3.05;58.66;99831.47;341298;29;1592;-71
2021/12/21 00:00:23;;;;;;;318.95;73.60;;;;;;;3.05;58.72;99831.47;341105;29;2017;-71
2021/12/21 00:00:34;;;;;;;319.53;75.67;;;;;;;3.07;58.42;99834.03;342589;28;1004;-71
2021/12/21 00:00:44;;;;;;;320.75;76.72;;;;;;;3.08;58.38;99835.75;341037;28;1326;-71
2021/12/21 00:00:55;;;;;;;320.38;75.80;;;;;;;3.10;58.58;99834.00;339206;29;1486;-71
2021/12/21 00:01:05;;;;;;;318.93;74.53;;;;;;;3.10;58.59;99840.03;339881;29;2025;-71
2021/12/21 00:01:15;;;;;;;318.95;74.43;;;;;;;3.09;58.02;99838.31;339923;29;819;-71
2021/12/21 00:01:26;;;;;;;321.00;75.07;;;;;;;3.09;58.06;99838.31;339092;29;893;-71
2021/12/21 00:01:36;;;;;;;321.27;75.60;;;;;;;3.09;58.10;99838.31;337493;29;2049;-71
2021/12/21 00:01:47;;;;;;;321.97;75.20;;;;;;;3.09;58.38;99834.88;339934;29;1253;-71
2021/12/21 00:01:57;;;;;;;320.83;75.70;;;;;;;3.09;57.88;99834.88;339876;29;1824;-71
2021/12/21 00:02:08;;;;;;;321.40;76.43;;;;;;;3.10;58.39;99840.03;339928;29;989;-71
2021/12/21 00:02:18;;;;;;;321.23;77.80;;;;;;;3.11;58.14;99840.91;341306;28;1199;-71
2021/12/21 00:02:28;;;;;;;321.93;77.57;;;;;;;3.10;58.03;99839.19;341020;29;1647;-71
2021/12/21 00:02:43;;;;;;;321.70;76.95;;;;;;;3.11;58.08;99846.94;340016;29;826;-71
2021/12/21 00:02:53;;;;;;;323.55;77.97;;;;;;;3.11;57.99;99840.91;338615;29;1846;-71
2021/12/21 00:03:04;;;;;;;322.85;77.88;;;;;;;3.12;58.16;99840.03;342607;28;985;-71
2021/12/21 00:03:14;;;;;;;322.63;77.37;;;;;;;3.14;58.01;99838.28;339900;29;891;-71
2021/12/21 00:03:25;;;;;;;320.23;76.00;;;;;;;3.14;58.18;99836.56;339929;28;1316;-71
2021/12/21 00:03:35;;;;;;;320.37;76.27;;;;;;;3.14;58.72;99836.56;340117;29;917;-71
2021/12/21 00:03:46;;;;;;;320.73;78.17;;;;;;;3.14;57.97;99840.88;341329;29;881;-71
2021/12/21 00:03:56;;;;;;;320.70;78.15;;;;;;;3.14;58.60;99843.47;341775;28;1211;-71
2021/12/21 00:04:06;;;;;;;320.97;77.37;;;;;;;3.13;58.06;99839.16;339999;29;1943;-71
2021/12/21 00:04:17;;;;;;;321.27;75.47;;;;;;;3.12;58.25;99840.03;344005;28;1396;-71
2021/12/21 00:04:27;;;;;;;320.48;75.63;;;;;;;3.10;57.77;99845.22;341488;28;1700;-71
2021/12/21 00:04:38;;;;;;;319.47;74.77;;;;;;;3.08;57.47;99846.09;339825;29;2125;-71
2021/12/21 00:04:48;;;;;;;319.50;74.03;;;;;;;3.07;57.91;99840.06;340157;29;818;-71
2021/12/21 00:04:58;;;;;;;321.30;74.60;;;;;;;3.07;58.31;99836.63;342435;28;898;-71
2021/12/21 00:05:13;;;;;;;322.45;75.93;;;;;;;3.05;58.17;99848.69;340343;29;1005;-71
2021/12/21 00:05:27;;;;;;;321.23;76.28;;;;;;;3.04;58.00;99840.09;337899;29;1366;-71
2021/12/21 00:05:38;;;;;;;317.95;74.07;;;;;;;3.06;58.02;99847.81;340111;29;1879;-71
2021/12/21 00:05:49;;;;;;;318.77;74.95;;;;;;;3.07;57.97;99849.53;338625;29;1358;-71
2021/12/21 00:05:59;;;;;;;319.57;75.63;;;;;;;3.08;57.54;99844.38;339874;29;1004;-71
2021/12/21 00:06:09;;;;;;;320.65;76.70;;;;;;;3.09;57.84;99853.84;339973;29;988;-71
2021/12/21 00:06:20;;;;;;;319.83;75.97;;;;;;;3.08;58.30;99844.38;341349;28;1047;-71
2021/12/21 00:06:30;;;;;;;320.70;76.28;;;;;;;3.11;58.08;99856.41;339938;29;1221;-71
2021/12/21 00:06:42;;;;;;;320.77;75.43;;;;;;;3.10;58.03;99845.22;339164;29;2032;-71
2021/12/21 00:06:53;;;;;;;319.92;74.20;;;;;;;3.10;58.24;99846.94;339672;29;1898;-71
2021/12/21 00:07:05;;;;;;;321.30;75.80;;;;;;;3.07;57.92;99849.53;341198;29;1302;-72
2021/12/21 00:07:15;;;;;;;320.85;75.85;;;;;;;3.06;57.93;99840.06;337163;28;1548;-71
2021/12/21 00:07:26;;;;;;;320.80;74.95;;;;;;;3.06;58.06;99847.81;338050;29;2102;-71
2021/12/21 00:07:36;;;;;;;319.50;73.07;;;;;;;3.06;57.89;99848.69;341161;28;1547;-71
2021/12/21 00:07:48;;;;;;;321.25;73.70;;;;;;;3.07;57.59;99844.38;340093;29;915;-71
2021/12/21 00:08:01;;;;;;;320.98;75.10;;;;;;;3.09;57.64;99852.97;338744;29;1816;-71
2021/12/21 00:08:13;;;;;;;319.56;75.56;;;;;;;3.08;57.76;99843.50;339239;29;1477;-71
2021/12/21 00:08:23;;;;;;;319.80;74.70;;;;;;;3.10;57.82;99846.94;338629;29;934;-71
2021/12/21 00:08:33;;;;;;;319.80;74.45;;;;;;;3.09;58.08;99843.50;338633;29;850;-71
2021/12/21 00:08:44;;;;;;;321.17;75.30;;;;;;;3.10;57.47;99844.34;340033;29;2189;-71
2021/12/21 00:08:54;;;;;;;321.35;76.35;;;;;;;3.12;57.86;99850.38;341253;29;870;-71
2021/12/21 00:09:05;;;;;;;321.70;76.67;;;;;;;3.13;58.19;99849.50;342540;28;817;-71
2021/12/21 00:09:15;;;;;;;320.35;76.43;;;;;;;3.13;57.44;99852.09;341321;29;774;-71
2021/12/21 00:09:26;;;;;;;320.87;77.43;;;;;;;3.11;57.91;99848.66;341843;28;1941;-71
2021/12/21 00:09:36;;;;;;;320.88;76.93;;;;;;;3.10;57.87;99845.22;342365;28;1886;-71
2021/12/21 00:09:46;;;;;;;321.03;76.60;;;;;;;3.10;57.48;99854.69;338676;29;855;-71
2021/12/21 00:09:57;;;;;;;321.45;75.20;;;;;;;3.10;57.87;99855.56;339862;28;2058;-71
2021/12/21 00:10:08;;;;;;;323.83;75.80;;;;;;;3.11;57.56;99851.25;339952;29;878;-71
2021/12/21 00:10:19;;;;;;;324.00;74.97;;;;;;;3.10;57.87;99854.69;341246;29;1123;-71
2021/12/21 00:10:31;;;;;;;321.67;74.15;;;;;;;3.09;57.87;99853.84;338563;29;1436;-71
2021/12/21 00:10:44;;;;;;;320.80;73.35;;;;;;;3.09;58.07;99847.81;339361;29;1410;-71
2021/12/21 00:10:55;;;;;;;319.95;74.05;;;;;;;3.10;57.81;99854.69;338066;29;2144;-70
2021/12/21 00:11:06;;;;;;;319.60;74.97;;;;;;;3.11;57.77;99851.25;334784;29;1143;-70
2021/12/21 00:11:16;;;;;;;320.15;75.28;;;;;;;3.11;57.98;99846.06;341107;29;1324;-70
2021/12/21 00:11:26;;;;;;;320.33;74.13;;;;;;;3.11;58.01;99851.25;342582;28;866;-70
2021/12/21 00:11:37;;;;;;;319.25;73.43;;;;;;;3.09;57.40;99853.84;342700;28;833;-70
2021/12/21 00:11:49;;;;;;;318.43;73.60;;;;;;;3.09;57.67;99858.16;342721;28;920;-70
2021/12/21 00:12:00;;;;;;;319.60;74.78;;;;;;;3.08;58.08;99857.28;341176;29;2035;-70
2021/12/21 00:12:14;;;;;;;321.10;75.95;;;;;;;3.07;57.69;99852.13;341058;28;1927;-70
2021/12/21 00:12:28;;;;;;;321.20;75.85;;;;;;;3.07;57.74;99852.13;341713;28;1307;-70
2021/12/21 00:12:47;;;;;;;322.25;75.30;;;;;;;3.07;57.94;99857.31;343385;28;975;-70
2021/12/21 00:13:21;;;;;;;321.15;76.03;;;;;;;3.04;57.50;99857.31;341172;29;752;-70
2021/12/21 00:14:06;;;;;;;321.93;76.20;;;;;;;3.10;57.42;99854.69;339086;29;983;-70
2021/12/21 00:14:25;;;;;;;320.12;74.18;;;;;;;3.13;57.11;99854.69;339951;29;1008;-70
2021/12/21 00:14:48;;;;;;;322.60;74.15;;;;;;;3.15;57.39;99852.94;338542;29;1895;-70
2021/12/21 00:15:23;;;;;;;321.80;76.10;;;;;;;3.14;57.40;99856.41;339898;29;854;-70
2021/12/21 00:16:10;;;;;;;319.80;74.85;;;;;;;3.09;57.60;99859.00;337325;29;1108;-70
2021/12/21 00:16:47;;;;;;;317.98;73.70;;;;;;;3.08;57.46;99859.03;337253;29;1015;-70
2021/12/21 00:17:18;;;;;;;322.10;74.93;;;;;;;3.14;57.47;99861.56;341109;29;882;-70
2021/12/21 00:17:54;;;;;;;322.40;75.07;;;;;;;3.10;57.35;99865.03;340962;29;1795;-70
2021/12/21 00:19:27;;;;;;;319.62;74.38;;;;;;;3.11;57.59;99867.63;336287;29;1088;-70
2021/12/21 00:20:51;;;;;;;321.00;76.45;;;;;;;3.15;57.80;99853.81;338407;29;1025;-70
2021/12/21 00:21:43;;;;;;;320.63;75.70;;;;;;;3.14;57.38;99865.00;340759;29;755;-70
2021/12/21 00:22:01;;;;;;;320.60;75.88;;;;;;;3.13;57.18;99862.44;341065;28;1907;-70
2021/12/21 00:22:37;;;;;;;319.67;75.07;;;;;;;3.14;57.47;99870.19;337023;29;1331;-70
2021/12/21 00:23:29;;;;;;;321.33;76.53;;;;;;;3.15;57.75;99869.31;341262;29;834;-70
2021/12/21 00:23:44;;;;;;;321.35;77.13;;;;;;;3.14;57.54;99866.75;338641;29;1403;-70
2021/12/21 00:23:59;;;;;;;321.67;77.72;;;;;;;3.15;57.03;99868.44;340925;29;1069;-70
2021/12/21 00:24:19;;;;;;;320.95;76.75;;;;;;;3.15;57.14;99869.31;341192;28;1726;-70
2021/12/21 00:24:34;;;;;;;320.63;75.45;;;;;;;3.14;57.52;99871.91;339017;29;1108;-70
2021/12/21 00:24:47;;;;;;;322.02;75.82;;;;;;;3.11;56.95;99867.63;340640;29;965;-70
2021/12/21 00:24:58;;;;;;;320.55;75.47;;;;;;;3.05;56.91;99867.66;341829;28;865;-70
2021/12/21 00:25:08;;;;;;;321.98;76.22;;;;;;;3.04;57.20;99870.25;341095;28;1759;-70
2021/12/21 00:25:20;;;;;;;323.33;76.73;;;;;;;3.03;57.32;99868.56;341265;29;862;-70
2021/12/21 00:25:30;;;;;;;324.25;77.68;;;;;;;2.98;57.37;99866.88;339870;29;1960;-70
2021/12/21 00:25:41;;;;;;;322.87;76.90;;;;;;;2.98;57.65;99866.00;339730;29;1303;-70
2021/12/21 00:25:51;;;;;;;321.70;77.37;;;;;;;2.99;57.93;99867.72;338726;29;882;-70
2021/12/21 00:26:09;;;;;;;320.80;76.23;;;;;;;3.02;57.47;99862.53;342452;28;1336;-70
2021/12/21 00:26:20;;;;;;;321.38;75.20;;;;;;;3.00;57.96;99865.13;338614;29;1328;-70
2021/12/21 00:26:31;;;;;;;321.05;75.00;;;;;;;3.00;57.43;99865.13;341195;29;897;-70
2021/12/21 00:26:41;;;;;;;319.80;75.20;;;;;;;3.02;57.56;99869.44;339328;29;2200;-70
2021/12/21 00:26:52;;;;;;;319.77;74.93;;;;;;;3.00;57.87;99870.28;340009;29;917;-70
2021/12/21 00:27:08;;;;;;;318.80;74.77;;;;;;;2.99;57.65;99871.16;341259;29;1562;-70
2021/12/21 00:27:18;;;;;;;319.05;74.90;;;;;;;3.00;58.01;99870.28;341920;28;1181;-70
2021/12/21 00:27:29;;;;;;;320.90;76.10;;;;;;;3.01;57.86;99871.16;343920;28;1762;-70
2021/12/21 00:27:39;;;;;;;321.48;75.53;;;;;;;3.02;57.90;99866.84;342953;28;861;-70
2021/12/21 00:27:51;;;;;;;321.73;75.20;;;;;;;3.00;58.12;99869.44;342631;28;830;-70
2021/12/21 00:28:02;;;;;;;321.54;74.30;;;;;;;2.98;58.07;99874.63;341319;29;850;-70
2021/12/21 00:28:13;;;;;;;321.83;74.65;;;;;;;2.95;57.96;99866.88;340437;29;946;-71
2021/12/21 00:28:24;;;;;;;321.13;75.57;;;;;;;2.97;57.80;99875.47;341186;28;1330;-71
2021/12/21 00:28:41;;;;;;;320.98;75.63;;;;;;;2.99;57.87;99867.72;341386;29;928;-71
2021/12/21 00:28:57;;;;;;;321.00;75.85;;;;;;;3.00;58.02;99870.28;341057;29;1343;-71
2021/12/21 00:29:07;;;;;;;321.75;76.95;;;;;;;3.00;57.63;99875.47;341027;29;1695;-71
2021/12/21 00:29:19;;;;;;;321.13;76.53;;;;;;;2.98;57.22;99872.03;342472;28;1241;-71
2021/12/21 00:29:30;;;;;;;321.67;75.97;;;;;;;2.99;57.23;99873.75;341041;28;1385;-71
2021/12/21 00:29:40;;;;;;;320.13;75.90;;;;;;;3.00;57.98;99875.47;338400;29;1533;-71
2021/12/21 00:29:50;;;;;;;320.83;76.30;;;;;;;3.00;57.57;99872.88;341160;29;1392;-71
2021/12/21 00:30:01;;;;;;;320.17;75.20;;;;;;;3.02;57.54;99877.19;340067;29;2075;-71
2021/12/21 00:30:11;;;;;;;320.63;75.30;;;;;;;3.03;57.58;99873.72;342993;28;2042;-71
2021/12/21 00:30:22;;;;;;;319.57;74.77;;;;;;;3.02;57.90;99867.69;341189;29;848;-71
2021/12/21 00:30:33;;;;;;;319.23;74.85;;;;;;;3.04;57.37;99870.25;339357;29;1685;-71
2021/12/21 00:30:43;;;;;;;318.37;74.47;;;;;;;3.03;57.88;99873.72;339692;29;1470;-71
2021/12/21 00:30:53;;;;;;;318.97;75.70;;;;;;;3.02;57.66;99872.00;338329;29;2201;-71
2021/12/21 00:31:04;;;;;;;319.75;77.43;;;;;;;3.01;57.54;99876.31;341100;28;1201;-71
2021/12/21 00:31:14;;;;;;;320.00;77.07;;;;;;;3.02;57.43;99874.59;340460;28;2107;-71
2021/12/21 00:31:28;;;;;;;319.88;76.20;;;;;;;3.03;57.39;99873.72;341189;28;2075;-71
2021/12/21 00:31:38;;;;;;;319.48;75.30;;;;;;;3.02;57.66;99872.88;342655;28;1359;-71
2021/12/21 00:31:49;;;;;;;320.80;76.03;;;;;;;3.03;57.92;99872.00;339909;29;838;-71
2021/12/21 00:31:59;;;;;;;322.08;76.70;;;;;;;3.03;57.59;99873.72;337882;29;1953;-71
2021/12/21 00:32:10;;;;;;;322.03;75.20;;;;;;;3.04;57.38;99872.84;338513;29;1447;-71
2021/12/21 00:32:20;;;;;;;321.60;75.70;;;;;;;3.06;58.11;99874.53;338692;29;862;-71
2021/12/21 00:32:31;;;;;;;321.73;76.57;;;;;;;3.05;57.72;99877.13;340588;28;1182;-71
2021/12/21 00:32:42;;;;;;;323.23;78.57;;;;;;;3.04;57.83;99873.69;342450;28;2099;-71
2021/12/21 00:32:52;;;;;;;323.48;78.55;;;;;;;3.04;57.66;99873.69;341248;29;865;-71
2021/12/21 00:33:02;;;;;;;323.10;78.13;;;;;;;3.05;57.37;99869.38;339685;29;1838;-71
2021/12/21 00:33:13;;;;;;;321.80;76.15;;;;;;;3.05;58.19;99878.00;341049;29;2013;-71
2021/12/21 00:33:23;;;;;;;323.27;76.67;;;;;;;3.05;58.00;99874.56;341197;28;1311;-71
2021/12/21 00:33:34;;;;;;;323.80;76.85;;;;;;;3.05;57.86;99872.81;342304;28;1640;-71
2021/12/21 00:33:46;;;;;;;322.83;77.20;;;;;;;3.04;57.75;99875.41;339739;28;1717;-71
2021/12/21 00:33:57;;;;;;;321.80;76.47;;;;;;;3.03;57.30;99873.72;336800;29;1578;-71
2021/12/21 00:34:08;;;;;;;321.58;75.82;;;;;;;3.06;58.03;99873.69;339809;29;890;-71
2021/12/21 00:34:18;;;;;;;321.90;76.60;;;;;;;3.04;58.00;99875.41;341113;29;2298;-71
2021/12/21 00:34:28;;;;;;;320.80;76.35;;;;;;;3.02;58.09;99872.88;342483;28;2109;-70
2021/12/21 00:34:40;;;;;;;321.03;76.23;;;;;;;2.99;57.76;99873.75;342384;28;1098;-70
2021/12/21 00:34:50;;;;;;;320.20;75.28;;;;;;;2.97;57.34;99867.72;344007;28;861;-70
2021/12/21 00:35:00;;;;;;;321.53;75.80;;;;;;;2.94;57.55;99875.50;338956;29;2150;-70
2021/12/21 00:35:11;;;;;;;321.35;76.78;;;;;;;2.95;57.64;99877.22;339567;29;1531;-70
2021/12/21 00:35:21;;;;;;;321.60;77.63;;;;;;;2.95;57.36;99877.22;340058;29;1833;-70
2021/12/21 00:35:32;;;;;;;320.63;76.63;;;;;;;2.93;57.49;99873.78;339724;29;2112;-70
2021/12/21 00:35:42;;;;;;;320.07;75.50;;;;;;;2.93;57.88;99873.78;338473;29;1306;-70
2021/12/21 00:35:52;;;;;;;320.38;75.18;;;;;;;2.93;57.29;99875.50;337314;29;897;-70
2021/12/21 00:36:03;;;;;;;320.53;75.53;;;;;;;2.92;57.89;99866.91;340929;28;1478;-70
2021/12/21 00:36:15;;;;;;;320.67;76.07;;;;;;;2.90;57.39;99873.81;342473;28;2030;-70
2021/12/21 00:36:27;;;;;;;320.55;76.63;;;;;;;2.89;57.70;99871.22;341356;28;1514;-70
2021/12/21 00:36:38;;;;;;;319.58;76.03;;;;;;;2.89;57.54;99869.50;339943;29;1296;-70
2021/12/21 00:36:49;;;;;;;319.80;75.55;;;;;;;2.89;57.80;99872.09;339969;29;1003;-70
2021/12/21 00:36:59;;;;;;;320.05;76.50;;;;;;;2.91;57.78;99872.94;340594;29;1440;-70
2021/12/21 00:37:09;;;;;;;319.83;77.27;;;;;;;2.90;57.70;99870.34;339717;28;1544;-70
2021/12/21 00:37:22;;;;;;;319.13;76.53;;;;;;;2.92;58.21;99877.22;341134;29;2417;-70
2021/12/21 00:37:32;;;;;;;319.35;75.55;;;;;;;2.89;57.79;99871.22;341043;29;2019;-70
2021/12/21 00:37:43;;;;;;;320.25;75.47;;;;;;;2.89;58.12;99866.91;341175;28;2015;-70
2021/12/21 00:37:54;;;;;;;320.77;75.93;;;;;;;2.89;58.00;99869.50;338968;29;2107;-70
2021/12/21 00:38:05;;;;;;;319.23;74.87;;;;;;;2.88;57.73;99872.09;338409;29;2853;-70
2021/12/21 00:38:15;;;;;;;317.75;73.40;;;;;;;2.86;57.96;99866.94;337887;29;1480;-70
2021/12/21 00:38:25;;;;;;;319.30;73.82;;;;;;;2.85;57.67;99872.97;337288;29;1251;-70
2021/12/21 00:38:36;;;;;;;320.60;74.23;;;;;;;2.85;58.32;99870.38;342547;28;1472;-70
2021/12/21 00:38:46;;;;;;;320.38;74.05;;;;;;;2.83;57.92;99866.94;342367;28;1957;-70
2021/12/21 00:38:58;;;;;;;319.00;73.83;;;;;;;2.82;57.40;99865.22;339689;29;2020;-70
2021/12/21 00:39:12;;;;;;;319.30;74.50;;;;;;;2.80;58.10;99872.13;337168;29;1380;-70
2021/12/21 00:39:22;;;;;;;319.55;75.07;;;;;;;2.80;57.73;99872.13;341383;29;889;-70
2021/12/21 00:39:33;;;;;;;319.43;75.60;;;;;;;2.80;57.69;99866.97;338790;29;1771;-70
2021/12/21 00:39:43;;;;;;;318.25;73.85;;;;;;;2.81;57.86;99863.50;341649;28;1170;-70
2021/12/21 00:39:54;;;;;;;317.88;73.22;;;;;;;2.81;57.86;99868.69;339907;29;1380;-70
2021/12/21 00:40:04;;;;;;;317.30;73.53;;;;;;;2.81;57.96;99870.41;338649;29;890;-70
2021/12/21 00:40:15;;;;;;;318.05;74.35;;;;;;;2.82;57.41;99869.53;340508;29;933;-70
2021/12/21 00:40:25;;;;;;;318.60;74.77;;;;;;;2.82;57.61;99865.22;341160;29;2007;-70
2021/12/21 00:40:36;;;;;;;318.05;73.45;;;;;;;2.79;57.42;99866.97;341135;29;1544;-70
2021/12/21 00:40:46;;;;;;;319.10;73.60;;;;;;;2.79;57.53;99860.06;341182;28;824;-70
2021/12/21 00:40:56;;;;;;;320.35;73.82;;;;;;;2.80;57.35;99869.53;341094;28;2015;-70
2021/12/21 00:41:07;;;;;;;321.50;74.27;;;;;;;2.80;57.27;99864.38;339841;29;1185;-70
2021/12/21 00:41:17;;;;;;;320.83;73.63;;;;;;;2.80;57.34;99861.78;339862;29;852;-70
2021/12/21 00:41:28;;;;;;;319.43;73.33;;;;;;;2.78;57.88;99863.53;339533;29;1672;-70
2021/12/21 00:41:38;;;;;;;319.60;73.43;;;;;;;2.80;58.13;99873.84;339738;28;1761;-70
2021/12/21 00:41:49;;;;;;;320.37;74.57;;;;;;;2.77;57.71;99872.16;340035;29;1009;-70
2021/12/21 00:42:01;;;;;;;321.60;74.95;;;;;;;2.76;57.83;99867.84;338649;29;973;-70
2021/12/21 00:42:11;;;;;;;320.75;74.38;;;;;;;2.74;57.68;99867.00;339680;29;1723;-70
2021/12/21 00:42:21;;;;;;;320.60;73.83;;;;;;;2.77;57.59;99866.97;338675;29;870;-70
2021/12/21 00:42:32;;;;;;;320.40;74.10;;;;;;;2.78;57.33;99868.69;339765;29;2003;-70
2021/12/21 00:42:42;;;;;;;321.03;74.53;;;;;;;2.79;57.86;99873.00;341188;29;1186;-70
2021/12/21 00:42:53;;;;;;;320.83;74.72;;;;;;;2.79;57.67;99870.41;341251;29;829;-70
2021/12/21 00:43:03;;;;;;;321.40;74.13;;;;;;;2.82;57.32;99872.97;338554;29;2181;-71
2021/12/21 00:43:13;;;;;;;320.52;74.18;;;;;;;2.82;57.79;99865.22;339698;29;1545;-71
2021/12/21 00:43:24;;;;;;;319.43;73.53;;;;;;;2.83;58.09;99866.94;341273;28;1288;-71
2021/12/21 00:43:34;;;;;;;318.63;73.68;;;;;;;2.82;57.43;99870.41;342314;28;2029;-71
2021/12/21 00:43:45;;;;;;;319.60;74.90;;;;;;;2.79;57.33;99864.38;339918;29;906;-71
2021/12/21 00:43:55;;;;;;;320.25;75.60;;;;;;;2.80;57.38;99872.13;339793;28;1268;-71
2021/12/21 00:44:05;;;;;;;320.63;74.83;;;;;;;2.79;56.98;99869.56;339789;29;1209;-71
2021/12/21 00:44:16;;;;;;;320.27;74.07;;;;;;;2.78;56.94;99863.53;337962;29;1667;-71
2021/12/21 00:44:27;;;;;;;320.27;74.63;;;;;;;2.78;57.83;99867.84;340068;29;925;-71
2021/12/21 00:44:37;;;;;;;320.25;75.45;;;;;;;2.78;57.54;99870.41;339885;29;1213;-71
2021/12/21 00:44:47;;;;;;;319.00;74.87;;;;;;;2.78;56.98;99873.84;340272;28;1277;-71
2021/12/21 00:44:58;;;;;;;319.03;74.27;;;;;;;2.77;57.54;99869.56;337422;29;996;-71
2021/12/21 00:45:08;;;;;;;318.87;74.67;;;;;;;2.78;57.54;99873.00;338610;29;866;-71
2021/12/21 00:45:20;;;;;;;319.88;74.10;;;;;;;2.76;57.91;99865.25;342483;28;1657;-71
2021/12/21 00:45:30;;;;;;;321.33;75.05;;;;;;;2.79;57.55;99869.56;342486;28;1802;-71
2021/12/21 00:45:40;;;;;;;322.55;75.72;;;;;;;2.77;57.01;99872.16;340946;28;1966;-71
2021/12/21 00:45:51;;;;;;;320.77;75.37;;;;;;;2.78;57.85;99870.41;339881;29;905;-71
2021/12/21 00:46:01;;;;;;;319.83;74.95;;;;;;;2.77;57.35;99866.13;340467;29;1663;-71
2021/12/21 00:46:12;;;;;;;317.97;73.07;;;;;;;2.76;57.61;99865.25;338497;29;806;-71
2021/12/21 00:46:22;;;;;;;319.17;74.18;;;;;;;2.78;57.76;99876.44;338656;29;973;-71
2021/12/21 00:46:33;;;;;;;319.60;74.30;;;;;;;2.78;57.84;99866.09;339908;29;916;-71
2021/12/21 00:46:44;;;;;;;321.20;75.93;;;;;;;2.79;57.78;99865.25;340063;29;1320;-71
2021/12/21 00:46:55;;;;;;;320.75;75.72;;;;;;;2.79;57.61;99870.41;339695;29;1052;-71
2021/12/21 00:47:05;;;;;;;321.23;75.83;;;;;;;2.78;57.08;99871.28;342606;28;888;-71
2021/12/21 00:47:16;;;;;;;321.42;75.28;;;;;;;2.80;57.72;99872.13;342311;28;1219;-71
2021/12/21 00:47:26;;;;;;;322.58;74.68;;;;;;;2.81;57.69;99870.41;339830;28;1339;-71
2021/12/21 00:47:41;;;;;;;322.17;74.47;;;;;;;2.80;57.58;99861.78;339855;28;1562;-71
2021/12/21 00:47:51;;;;;;;319.25;73.60;;;;;;;2.81;57.75;99873.84;342526;28;829;-71
2021/12/21 00:48:02;;;;;;;319.88;73.80;;;;;;;2.82;57.34;99865.22;340931;28;3126;-71
2021/12/21 00:48:14;;;;;;;320.67;76.00;;;;;;;2.83;57.27;99872.13;339844;28;1258;-71
2021/12/21 00:48:29;;;;;;;322.45;75.90;;;;;;;2.83;57.59;99869.53;342472;28;1428;-71
2021/12/21 00:48:48;;;;;;;321.15;73.88;;;;;;;2.86;57.89;99873.81;339988;29;1066;-71
2021/12/21 00:49:11;;;;;;;319.80;74.53;;;;;;;2.84;57.63;99872.97;340786;28;1611;-71
2021/12/21 00:49:23;;;;;;;320.83;74.68;;;;;;;2.80;57.41;99868.69;339712;28;1735;-71
2021/12/21 00:49:35;;;;;;;319.40;73.70;;;;;;;2.81;57.07;99866.09;339444;29;1547;-71
2021/12/21 00:49:47;;;;;;;318.60;73.57;;;;;;;2.82;57.47;99874.72;340755;29;933;-71
2021/12/21 00:50:00;;;;;;;318.35;73.20;;;;;;;2.81;57.34;99868.69;340303;28;1859;-71
2021/12/21 00:50:16;;;;;;;319.02;72.88;;;;;;;2.79;57.03;99865.25;342559;28;845;-71
2021/12/21 00:50:29;;;;;;;319.92;73.85;;;;;;;2.83;57.08;99872.13;339943;29;988;-71
2021/12/21 00:50:39;;;;;;;320.65;74.78;;;;;;;2.83;57.17;99872.13;341084;29;1304;-71
2021/12/21 00:50:49;;;;;;;319.27;73.47;;;;;;;2.82;57.20;99865.22;339408;29;2124;-71
2021/12/21 00:51:02;;;;;;;319.05;74.15;;;;;;;2.84;57.44;99863.50;339900;29;1934;-71
2021/12/21 00:51:12;;;;;;;318.50;73.85;;;;;;;2.81;57.58;99873.00;339792;29;1261;-71
2021/12/21 00:51:25;;;;;;;318.93;73.63;;;;;;;2.81;57.48;99873.84;341165;28;1237;-71
2021/12/21 00:51:35;;;;;;;319.85;73.78;;;;;;;2.81;58.09;99878.16;341113;29;1746;-71
2021/12/21 00:51:46;;;;;;;319.27;73.78;;;;;;;2.81;57.65;99873.84;339789;29;2090;-71
2021/12/21 00:51:56;;;;;;;319.58;74.55;;;;;;;2.82;57.29;99872.97;336000;29;1265;-71
2021/12/21 00:52:07;;;;;;;319.90;74.70;;;;;;;2.81;57.35;99868.69;335777;29;2247;-71
2021/12/21 00:52:17;;;;;;;320.67;75.87;;;;;;;2.79;57.42;99870.41;337036;29;1435;-71
2021/12/21 00:52:28;;;;;;;319.80;74.47;;;;;;;2.78;57.18;99873.84;337882;29;1100;-71
2021/12/21 00:52:38;;;;;;;319.07;73.63;;;;;;;2.78;56.75;99873.84;341236;28;2147;-71
2021/12/21 00:52:51;;;;;;;318.52;73.20;;;;;;;2.79;56.44;99870.41;341118;29;896;-71
2021/12/21 00:53:01;;;;;;;319.08;73.15;;;;;;;2.79;57.00;99874.72;339631;28;1861;-71
2021/12/21 00:53:12;;;;;;;318.40;73.20;;;;;;;2.80;57.18;99866.97;337117;29;995;-71
2021/12/21 00:53:22;;;;;;;319.00;73.80;;;;;;;2.80;56.93;99871.28;340962;29;898;-71
2021/12/21 00:53:36;;;;;;;320.52;74.65;;;;;;;2.80;56.98;99869.53;341093;28;1064;-70
2021/12/21 00:53:46;;;;;;;320.00;73.93;;;;;;;2.80;56.45;99866.97;340974;28;1758;-70
2021/12/21 00:53:57;;;;;;;319.50;73.75;;;;;;;2.80;56.97;99871.28;338601;29;868;-70
2021/12/21 00:54:07;;;;;;;318.23;73.20;;;;;;;2.78;57.10;99868.69;339684;29;2006;-70
2021/12/21 00:54:18;;;;;;;319.77;74.47;;;;;;;2.80;57.13;99869.53;341492;28;2293;-70
2021/12/21 00:54:28;;;;;;;319.07;74.23;;;;;;;2.79;57.31;99867.81;341155;28;1268;-70
2021/12/21 00:54:38;;;;;;;318.52;73.65;;;;;;;2.80;56.93;99876.44;340005;29;1627;-70
2021/12/21 00:54:49;;;;;;;318.53;73.27;;;;;;;2.81;57.02;99873.00;341694;28;2068;-70
2021/12/21 00:54:59;;;;;;;318.40;73.37;;;;;;;2.82;56.29;99864.38;338572;29;1042;-70
2021/12/21 00:55:09;;;;;;;320.17;75.03;;;;;;;2.83;56.83;99868.66;338399;29;1872;-70
2021/12/21 00:55:21;;;;;;;321.90;74.73;;;;;;;2.83;56.68;99866.94;340574;29;906;-70
2021/12/21 00:55:31;;;;;;;322.50;74.05;;;;;;;2.82;56.45;99867.81;339932;29;1661;-70
2021/12/21 00:55:42;;;;;;;321.33;73.23;;;;;;;2.82;56.86;99867.81;342307;28;1414;-70
2021/12/21 00:55:52;;;;;;;320.52;73.40;;;;;;;2.83;56.46;99874.69;338561;29;1970;-70
2021/12/21 00:56:03;;;;;;;320.07;73.53;;;;;;;2.83;57.08;99872.13;339999;29;1385;-70
2021/12/21 00:56:14;;;;;;;319.67;73.67;;;;;;;2.84;56.93;99872.97;339738;29;922;-72
2021/12/21 00:56:24;;;;;;;318.90;73.20;;;;;;;2.85;56.32;99864.34;339776;29;1399;-72
2021/12/21 00:56:34;;;;;;;318.67;72.37;;;;;;;2.84;56.96;99868.66;341131;28;1944;-72
2021/12/21 00:56:45;;;;;;;317.55;71.45;;;;;;;2.84;56.49;99863.50;339790;28;1267;-72
2021/12/21 00:56:55;;;;;;;316.70;71.00;;;;;;;2.83;56.21;99866.94;341250;29;1296;-72
2021/12/21 00:57:06;;;;;;;317.00;71.63;;;;;;;2.81;56.94;99868.69;341073;29;1266;-71
2021/12/21 00:57:16;;;;;;;317.25;71.35;;;;;;;2.82;56.86;99875.56;337031;29;1598;-71
2021/12/21 00:57:27;;;;;;;318.07;72.27;;;;;;;2.81;56.63;99871.25;338571;29;1334;-71
2021/12/21 00:57:37;;;;;;;319.92;73.20;;;;;;;2.80;56.41;99869.53;341657;28;1661;-71
2021/12/21 00:57:48;;;;;;;321.97;73.27;;;;;;;2.82;56.96;99865.22;339900;29;810;-71
2021/12/21 00:57:58;;;;;;;321.65;73.20;;;;;;;2.81;56.54;99871.25;341274;29;1254;-71
2021/12/21 00:58:08;;;;;;;321.23;73.00;;;;;;;2.80;56.41;99861.78;338545;29;1264;-72
2021/12/21 00:58:19;;;;;;;320.38;73.70;;;;;;;2.79;56.20;99865.25;338351;29;1822;-71
2021/12/21 00:58:29;;;;;;;320.47;74.93;;;;;;;2.80;56.85;99868.69;337275;29;1404;-71
2021/12/21 00:58:40;;;;;;;317.88;73.20;;;;;;;2.78;56.52;99867.84;341145;29;1581;-71
2021/12/21 00:58:50;;;;;;;318.27;73.93;;;;;;;2.78;56.70;99868.69;340467;29;1873;-71
2021/12/21 00:59:00;;;;;;;318.63;73.07;;;;;;;2.79;56.83;99867.81;342391;28;1599;-71
2021/12/21 00:59:11;;;;;;;318.27;73.77;;;;;;;2.80;56.49;99866.09;341220;29;919;-71
2021/12/21 00:59:21;;;;;;;318.27;73.00;;;;;;;2.80;56.60;99866.97;339738;28;2077;-71
2021/12/21 00:59:32;;;;;;;317.02;71.88;;;;;;;2.81;56.31;99870.41;339857;28;1323;-71
2021/12/21 00:59:43;;;;;;;319.13;72.72;;;;;;;2.82;56.51;99872.97;339945;29;842;-71
2021/12/21 00:59:53;;;;;;;318.23;72.57;;;;;;;2.83;56.48;99869.53;342232;28;1875;-71
2021/12/21 01:00:05;;;;;;;319.40;73.28;;;;;;;2.84;56.39;99866.06;338533;29;844;-71
2021/12/21 01:00:16;;;;;;;320.30;73.43;;;;;;;2.84;56.55;99868.66;341189;29;1563;-71
2021/12/21 01:00:27;;;;;;;320.23;73.50;;;;;;;2.85;56.66;99870.38;341301;29;977;-71